GXA293 MYEF-KGPT
Flight info
| Callsign | GXA293 |
|---|---|
| Flight time | N/A |
| Altitude | 34000 |
| Route | ZQA DCT ZBV DCT REDFN DCT GPTCB |
| Aircraft | A320/M-SDE3FGHIRWY/LB1 |
Departure
| Time | N/A |
|---|---|
| Airport | Exuma International Airport (MYEF) |
Arrival
| Time | 2026-04-16 22:39 |
|---|---|
| Airport | Gulfport Biloxi International Airport (KGPT) |
| Time | Latitude | Longitude | Altitude | Speed | Heading |
|---|---|---|---|---|---|
| 2026-04-16 22:12 | 28.87175 | -88.66311 | 19402 ft | 309 kts | 290° |
| 2026-04-16 22:13 | 28.88260 | -88.68440 | 19011 ft | 314 kts | 305° |
| 2026-04-16 22:13 | 28.89244 | -88.69663 | 18756 ft | 318 kts | 315° |
| 2026-04-16 22:13 | 28.91071 | -88.71114 | 18378 ft | 324 kts | 330° |
| 2026-04-16 22:13 | 28.93180 | -88.72087 | 17903 ft | 329 kts | 338° |
| 2026-04-16 22:14 | 28.95359 | -88.72896 | 17520 ft | 329 kts | 338° |
| 2026-04-16 22:14 | 28.97544 | -88.73696 | 17070 ft | 331 kts | 338° |
| 2026-04-16 22:14 | 28.99736 | -88.74508 | 16661 ft | 331 kts | 338° |
| 2026-04-16 22:14 | 29.01925 | -88.75333 | 16278 ft | 331 kts | 338° |
| 2026-04-16 22:15 | 29.04111 | -88.76159 | 15897 ft | 331 kts | 338° |
| 2026-04-16 22:15 | 29.06296 | -88.76983 | 15518 ft | 330 kts | 338° |
| 2026-04-16 22:15 | 29.08476 | -88.77808 | 15130 ft | 330 kts | 338° |
| 2026-04-16 22:15 | 29.10658 | -88.78634 | 14745 ft | 330 kts | 338° |
| 2026-04-16 22:16 | 29.12838 | -88.79461 | 14359 ft | 330 kts | 338° |
| 2026-04-16 22:16 | 29.15013 | -88.80290 | 13975 ft | 330 kts | 338° |
| 2026-04-16 22:16 | 29.17191 | -88.81117 | 13542 ft | 330 kts | 339° |
| 2026-04-16 22:16 | 29.19367 | -88.81943 | 13143 ft | 335 kts | 339° |
| 2026-04-16 22:17 | 29.21701 | -88.82834 | 12713 ft | 364 kts | 339° |
| 2026-04-16 22:17 | 29.24122 | -88.83752 | 12538 ft | 370 kts | 339° |
| 2026-04-16 22:17 | 29.26539 | -88.84672 | 12409 ft | 370 kts | 339° |
| 2026-04-16 22:17 | 29.28982 | -88.85601 | 12296 ft | 369 kts | 339° |
| 2026-04-16 22:18 | 29.31406 | -88.86549 | 12173 ft | 367 kts | 339° |
| 2026-04-16 22:18 | 29.33828 | -88.87471 | 12049 ft | 367 kts | 340° |
| 2026-04-16 22:18 | 29.36248 | -88.88391 | 11933 ft | 366 kts | 340° |
| 2026-04-16 22:18 | 29.38661 | -88.89309 | 11809 ft | 365 kts | 340° |
| 2026-04-16 22:19 | 29.41071 | -88.90229 | 11686 ft | 364 kts | 340° |
| 2026-04-16 22:19 | 29.43474 | -88.91146 | 11563 ft | 364 kts | 340° |
| 2026-04-16 22:19 | 29.45870 | -88.92063 | 11447 ft | 363 kts | 340° |
| 2026-04-16 22:19 | 29.48263 | -88.92980 | 11331 ft | 362 kts | 340° |
| 2026-04-16 22:20 | 29.50654 | -88.93895 | 11212 ft | 361 kts | 340° |
| 2026-04-16 22:20 | 29.53033 | -88.94809 | 11106 ft | 360 kts | 340° |
| 2026-04-16 22:20 | 29.55409 | -88.95716 | 11054 ft | 359 kts | 340° |
| 2026-04-16 22:20 | 29.57779 | -88.96626 | 11027 ft | 359 kts | 339° |
| 2026-04-16 22:21 | 29.60147 | -88.97530 | 11005 ft | 358 kts | 340° |
| 2026-04-16 22:21 | 29.62508 | -88.98433 | 10998 ft | 358 kts | 340° |
| 2026-04-16 22:21 | 29.64842 | -88.99328 | 10999 ft | 358 kts | 339° |
| 2026-04-16 22:21 | 29.67194 | -89.00282 | 10999 ft | 358 kts | 338° |
| 2026-04-16 22:22 | 29.69524 | -89.01281 | 11002 ft | 358 kts | 337° |
| 2026-04-16 22:22 | 29.71858 | -89.02280 | 11002 ft | 358 kts | 338° |
| 2026-04-16 22:22 | 29.74195 | -89.03286 | 11002 ft | 358 kts | 337° |
| 2026-04-16 22:22 | 29.76539 | -89.04290 | 11002 ft | 358 kts | 337° |
| 2026-04-16 22:23 | 29.78872 | -89.05289 | 10999 ft | 358 kts | 338° |
| 2026-04-16 22:23 | 29.81208 | -89.06292 | 10999 ft | 358 kts | 338° |
| 2026-04-16 22:23 | 29.83543 | -89.07287 | 10999 ft | 357 kts | 338° |
| 2026-04-16 22:23 | 29.85875 | -89.08280 | 10996 ft | 357 kts | 338° |
| 2026-04-16 22:24 | 29.88194 | -89.09262 | 10995 ft | 349 kts | 338° |
| 2026-04-16 22:24 | 29.90403 | -89.10196 | 10994 ft | 329 kts | 338° |
| 2026-04-16 22:24 | 29.92496 | -89.11078 | 10997 ft | 311 kts | 338° |
| 2026-04-16 22:24 | 29.94493 | -89.11906 | 10998 ft | 301 kts | 338° |
| 2026-04-16 22:25 | 29.96455 | -89.12722 | 10999 ft | 299 kts | 337° |
| 2026-04-16 22:25 | 29.98409 | -89.13531 | 10999 ft | 298 kts | 338° |
| 2026-04-16 22:25 | 30.00340 | -89.14327 | 10999 ft | 298 kts | 338° |
| 2026-04-16 22:25 | 30.02293 | -89.15139 | 10999 ft | 298 kts | 338° |
| 2026-04-16 22:26 | 30.04245 | -89.15944 | 10999 ft | 298 kts | 338° |
| 2026-04-16 22:26 | 30.06190 | -89.16749 | 10790 ft | 294 kts | 338° |
| 2026-04-16 22:26 | 30.08111 | -89.17553 | 10162 ft | 292 kts | 337° |
| 2026-04-16 22:26 | 30.10009 | -89.18345 | 9495 ft | 288 kts | 338° |
| 2026-04-16 22:27 | 30.11882 | -89.19135 | 8819 ft | 285 kts | 338° |
| 2026-04-16 22:27 | 30.13726 | -89.19917 | 8187 ft | 279 kts | 337° |
| 2026-04-16 22:27 | 30.15537 | -89.20674 | 7549 ft | 275 kts | 337° |
| 2026-04-16 22:27 | 30.17321 | -89.21434 | 6878 ft | 272 kts | 338° |
| 2026-04-16 22:28 | 30.19084 | -89.22198 | 6223 ft | 268 kts | 337° |
| 2026-04-16 22:28 | 30.20822 | -89.22947 | 5526 ft | 266 kts | 337° |
| 2026-04-16 22:28 | 30.22550 | -89.23700 | 4792 ft | 266 kts | 337° |
| 2026-04-16 22:28 | 30.24279 | -89.24447 | 4035 ft | 265 kts | 338° |
| 2026-04-16 22:29 | 30.26015 | -89.25187 | 3336 ft | 266 kts | 338° |
| 2026-04-16 22:29 | 30.27751 | -89.25931 | 3058 ft | 267 kts | 338° |
| 2026-04-16 22:29 | 30.29505 | -89.26690 | 3008 ft | 270 kts | 338° |
| 2026-04-16 22:29 | 30.31283 | -89.27455 | 2999 ft | 272 kts | 338° |
| 2026-04-16 22:30 | 30.33052 | -89.28228 | 2998 ft | 271 kts | 338° |
| 2026-04-16 22:30 | 30.34816 | -89.29002 | 2999 ft | 272 kts | 338° |
| 2026-04-16 22:30 | 30.36594 | -89.29770 | 3000 ft | 273 kts | 337° |
| 2026-04-16 22:30 | 30.38369 | -89.30544 | 2999 ft | 272 kts | 338° |
| 2026-04-16 22:31 | 30.40116 | -89.31300 | 3001 ft | 269 kts | 339° |
| 2026-04-16 22:31 | 30.41811 | -89.32019 | 2998 ft | 250 kts | 338° |
| 2026-04-16 22:31 | 30.43392 | -89.32694 | 2995 ft | 235 kts | 338° |
| 2026-04-16 22:31 | 30.44904 | -89.33344 | 3004 ft | 231 kts | 338° |
| 2026-04-16 22:32 | 30.46431 | -89.33990 | 3004 ft | 233 kts | 338° |
| 2026-04-16 22:32 | 30.47948 | -89.34640 | 3003 ft | 232 kts | 338° |
| 2026-04-16 22:32 | 30.49483 | -89.35226 | 3003 ft | 233 kts | 352° |
| 2026-04-16 22:32 | 30.51043 | -89.35014 | 2988 ft | 222 kts | 26° |
| 2026-04-16 22:33 | 30.52254 | -89.33985 | 2875 ft | 212 kts | 45° |
| 2026-04-16 22:33 | 30.53223 | -89.32751 | 2747 ft | 202 kts | 64° |
| 2026-04-16 22:33 | 30.53502 | -89.31244 | 2566 ft | 188 kts | 101° |
| 2026-04-16 22:33 | 30.53273 | -89.29771 | 2369 ft | 184 kts | 106° |
| 2026-04-16 22:34 | 30.52965 | -89.28333 | 2097 ft | 182 kts | 108° |
| 2026-04-16 22:34 | 30.52671 | -89.26938 | 2007 ft | 175 kts | 108° |
| 2026-04-16 22:34 | 30.52402 | -89.25565 | 2004 ft | 174 kts | 107° |
| 2026-04-16 22:34 | 30.52127 | -89.24202 | 2004 ft | 174 kts | 108° |
| 2026-04-16 22:35 | 30.51843 | -89.22827 | 2000 ft | 176 kts | 107° |
| 2026-04-16 22:35 | 30.51565 | -89.21445 | 2017 ft | 175 kts | 109° |
| 2026-04-16 22:35 | 30.51274 | -89.20080 | 2001 ft | 172 kts | 116° |
| 2026-04-16 22:35 | 30.50670 | -89.18903 | 2008 ft | 169 kts | 133° |
| 2026-04-16 22:36 | 30.49860 | -89.17926 | 2011 ft | 168 kts | 138° |
| 2026-04-16 22:36 | 30.49042 | -89.16978 | 1993 ft | 170 kts | 138° |
| 2026-04-16 22:36 | 30.48190 | -89.15992 | 1855 ft | 173 kts | 138° |
| 2026-04-16 22:36 | 30.47372 | -89.15040 | 1653 ft | 160 kts | 138° |
| 2026-04-16 22:37 | 30.46617 | -89.14161 | 1473 ft | 147 kts | 140° |
| 2026-04-16 22:37 | 30.45927 | -89.13359 | 1266 ft | 135 kts | 141° |
| 2026-04-16 22:37 | 30.45282 | -89.12611 | 1098 ft | 129 kts | 141° |
| 2026-04-16 22:37 | 30.44646 | -89.11878 | 923 ft | 131 kts | 141° |
| 2026-04-16 22:38 | 30.43995 | -89.11127 | 750 ft | 134 kts | 140° |
| 2026-04-16 22:38 | 30.43332 | -89.10360 | 594 ft | 134 kts | 138° |
| 2026-04-16 22:38 | 30.42687 | -89.09616 | 399 ft | 129 kts | 140° |
| 2026-04-16 22:38 | 30.42058 | -89.08884 | 210 ft | 130 kts | 139° |
| 2026-04-16 22:39 | 30.41425 | -89.08146 | 62 ft | 128 kts | 139° |
| 2026-04-16 22:39 | 30.40864 | -89.07501 | 36 ft | 91 kts | 136° |
| 2026-04-16 22:39 | 30.40623 | -89.07220 | 39 ft | 13 kts | 132° |
| 2026-04-16 22:39 | 30.40580 | -89.07207 | 40 ft | 7 kts | 216° |
| 2026-04-16 22:40 | 30.40537 | -89.07250 | 41 ft | 10 kts | 225° |
| 2026-04-16 22:40 | 30.40490 | -89.07307 | 38 ft | 7 kts | 225° |
| 2026-04-16 22:40 | 30.40456 | -89.07344 | 41 ft | 1 kts | 222° |
| 2026-04-16 22:40 | 30.40455 | -89.07346 | 41 ft | 0 kts | 223° |
| 2026-04-16 22:41 | 30.40449 | -89.07352 | 41 ft | 3 kts | 223° |
| 2026-04-16 22:41 | 30.40416 | -89.07360 | 42 ft | 6 kts | 178° |
| 2026-04-16 22:42 | 30.40383 | -89.07368 | 43 ft | 4 kts | 219° |
| 2026-04-16 22:42 | 30.40368 | -89.07386 | 43 ft | 1 kts | 223° |